sensor_id;sensor_type;location;lat;lon;timestamp;P1;durP1;ratioP1;P2;durP2;ratioP2
73170;SDS011;61381;50.118;19.962;2022-11-13T00:04:43;42.20;;;14.95;;
73170;SDS011;61381;50.118;19.962;2022-11-13T00:09:46;45.58;;;15.75;;
73170;SDS011;61381;50.118;19.962;2022-11-13T00:14:46;48.67;;;16.95;;
73170;SDS011;61381;50.118;19.962;2022-11-13T00:19:47;44.95;;;15.65;;
73170;SDS011;61381;50.118;19.962;2022-11-13T00:24:50;47.65;;;17.42;;
73170;SDS011;61381;50.118;19.962;2022-11-13T00:29:51;47.38;;;17.08;;
73170;SDS011;61381;50.118;19.962;2022-11-13T00:34:52;42.22;;;14.45;;
73170;SDS011;61381;50.118;19.962;2022-11-13T00:39:54;53.72;;;18.95;;
73170;SDS011;61381;50.118;19.962;2022-11-13T00:44:55;57.75;;;19.13;;
73170;SDS011;61381;50.118;19.962;2022-11-13T00:49:56;48.05;;;16.27;;
73170;SDS011;61381;50.118;19.962;2022-11-13T00:54:58;51.72;;;18.35;;
73170;SDS011;61381;50.118;19.962;2022-11-13T00:59:59;42.67;;;14.90;;
73170;SDS011;61381;50.118;19.962;2022-11-13T01:05:00;49.97;;;17.98;;
73170;SDS011;61381;50.118;19.962;2022-11-13T01:10:03;48.85;;;18.38;;
73170;SDS011;61381;50.118;19.962;2022-11-13T01:15:05;48.30;;;17.92;;
73170;SDS011;61381;50.118;19.962;2022-11-13T01:20:06;46.65;;;15.70;;
73170;SDS011;61381;50.118;19.962;2022-11-13T01:25:10;48.47;;;17.83;;
73170;SDS011;61381;50.118;19.962;2022-11-13T01:30:11;57.72;;;18.98;;
73170;SDS011;61381;50.118;19.962;2022-11-13T01:35:12;66.15;;;20.40;;
73170;SDS011;61381;50.118;19.962;2022-11-13T01:40:14;64.07;;;19.23;;
73170;SDS011;61381;50.118;19.962;2022-11-13T01:51:05;59.47;;;18.75;;
73170;SDS011;61381;50.118;19.962;2022-11-13T01:56:12;64.22;;;20.98;;
73170;SDS011;61381;50.118;19.962;2022-11-13T02:01:14;66.45;;;20.58;;
73170;SDS011;61381;50.118;19.962;2022-11-13T02:06:15;62.38;;;20.42;;
73170;SDS011;61381;50.118;19.962;2022-11-13T02:11:18;59.97;;;19.38;;
73170;SDS011;61381;50.118;19.962;2022-11-13T02:16:19;62.38;;;21.13;;
73170;SDS011;61381;50.118;19.962;2022-11-13T02:21:26;65.75;;;21.05;;
73170;SDS011;61381;50.118;19.962;2022-11-13T02:26:33;69.85;;;21.35;;
73170;SDS011;61381;50.118;19.962;2022-11-13T02:31:36;57.53;;;19.38;;
73170;SDS011;61381;50.118;19.962;2022-11-13T02:36:37;76.20;;;22.05;;
73170;SDS011;61381;50.118;19.962;2022-11-13T02:41:40;67.15;;;20.73;;
73170;SDS011;61381;50.118;19.962;2022-11-13T02:46:41;58.25;;;19.67;;
73170;SDS011;61381;50.118;19.962;2022-11-13T02:51:42;67.30;;;19.60;;
73170;SDS011;61381;50.118;19.962;2022-11-13T02:56:44;61.03;;;18.65;;
73170;SDS011;61381;50.118;19.962;2022-11-13T03:01:45;69.45;;;19.48;;
73170;SDS011;61381;50.118;19.962;2022-11-13T03:06:46;56.30;;;17.33;;
73170;SDS011;61381;50.118;19.962;2022-11-13T03:11:48;51.47;;;16.65;;
73170;SDS011;61381;50.118;19.962;2022-11-13T03:16:49;56.55;;;18.30;;
73170;SDS011;61381;50.118;19.962;2022-11-13T03:21:50;55.25;;;16.90;;
73170;SDS011;61381;50.118;19.962;2022-11-13T03:26:53;56.75;;;17.05;;
73170;SDS011;61381;50.118;19.962;2022-11-13T03:31:54;53.58;;;16.42;;
73170;SDS011;61381;50.118;19.962;2022-11-13T03:36:55;44.78;;;15.63;;
73170;SDS011;61381;50.118;19.962;2022-11-13T03:41:57;48.60;;;15.85;;
73170;SDS011;61381;50.118;19.962;2022-11-13T03:46:58;49.70;;;16.40;;
73170;SDS011;61381;50.118;19.962;2022-11-13T03:51:59;47.03;;;16.08;;
73170;SDS011;61381;50.118;19.962;2022-11-13T03:57:01;58.90;;;17.85;;
73170;SDS011;61381;50.118;19.962;2022-11-13T04:02:02;52.70;;;17.38;;
73170;SDS011;61381;50.118;19.962;2022-11-13T04:07:03;53.90;;;16.98;;
73170;SDS011;61381;50.118;19.962;2022-11-13T04:12:06;58.75;;;17.92;;
73170;SDS011;61381;50.118;19.962;2022-11-13T04:17:07;62.25;;;19.10;;
73170;SDS011;61381;50.118;19.962;2022-11-13T04:22:08;63.25;;;19.45;;
73170;SDS011;61381;50.118;19.962;2022-11-13T04:27:10;72.85;;;20.58;;
73170;SDS011;61381;50.118;19.962;2022-11-13T04:32:11;65.95;;;21.58;;
73170;SDS011;61381;50.118;19.962;2022-11-13T04:37:12;68.47;;;21.15;;
73170;SDS011;61381;50.118;19.962;2022-11-13T04:42:15;56.60;;;17.25;;
73170;SDS011;61381;50.118;19.962;2022-11-13T04:47:16;68.22;;;19.33;;
73170;SDS011;61381;50.118;19.962;2022-11-13T04:52:17;59.75;;;18.60;;
73170;SDS011;61381;50.118;19.962;2022-11-13T04:57:19;62.38;;;19.30;;
73170;SDS011;61381;50.118;19.962;2022-11-13T05:02:20;59.33;;;18.48;;
73170;SDS011;61381;50.118;19.962;2022-11-13T05:07:21;64.65;;;20.63;;
73170;SDS011;61381;50.118;19.962;2022-11-13T05:12:24;70.25;;;21.67;;
73170;SDS011;61381;50.118;19.962;2022-11-13T05:17:25;67.63;;;18.70;;
73170;SDS011;61381;50.118;19.962;2022-11-13T05:22:26;64.88;;;18.98;;
73170;SDS011;61381;50.118;19.962;2022-11-13T05:27:28;64.80;;;20.83;;
73170;SDS011;61381;50.118;19.962;2022-11-13T05:32:30;73.10;;;19.77;;
73170;SDS011;61381;50.118;19.962;2022-11-13T05:37:31;63.63;;;19.52;;
73170;SDS011;61381;50.118;19.962;2022-11-13T05:42:34;63.53;;;20.42;;
73170;SDS011;61381;50.118;19.962;2022-11-13T05:47:35;65.18;;;19.50;;
73170;SDS011;61381;50.118;19.962;2022-11-13T05:52:36;74.15;;;21.30;;
73170;SDS011;61381;50.118;19.962;2022-11-13T05:57:38;68.45;;;18.23;;
73170;SDS011;61381;50.118;19.962;2022-11-13T06:02:39;79.78;;;22.98;;
73170;SDS011;61381;50.118;19.962;2022-11-13T06:07:40;68.20;;;20.15;;
73170;SDS011;61381;50.118;19.962;2022-11-13T06:12:43;72.68;;;20.60;;
73170;SDS011;61381;50.118;19.962;2022-11-13T06:17:44;63.72;;;19.95;;
73170;SDS011;61381;50.118;19.962;2022-11-13T06:22:45;57.40;;;17.23;;
73170;SDS011;61381;50.118;19.962;2022-11-13T06:27:47;66.20;;;16.90;;
73170;SDS011;61381;50.118;19.962;2022-11-13T06:32:50;58.33;;;16.63;;
73170;SDS011;61381;50.118;19.962;2022-11-13T06:37:53;56.50;;;18.10;;
73170;SDS011;61381;50.118;19.962;2022-11-13T06:42:55;59.67;;;18.42;;
73170;SDS011;61381;50.118;19.962;2022-11-13T06:47:56;62.67;;;17.63;;
73170;SDS011;61381;50.118;19.962;2022-11-13T06:52:57;58.00;;;17.48;;
73170;SDS011;61381;50.118;19.962;2022-11-13T06:57:59;52.47;;;17.00;;
73170;SDS011;61381;50.118;19.962;2022-11-13T07:03:00;54.10;;;16.30;;
73170;SDS011;61381;50.118;19.962;2022-11-13T07:08:01;57.10;;;18.92;;
73170;SDS011;61381;50.118;19.962;2022-11-13T07:13:03;51.20;;;16.77;;
73170;SDS011;61381;50.118;19.962;2022-11-13T07:18:05;47.42;;;15.50;;
73170;SDS011;61381;50.118;19.962;2022-11-13T07:23:06;41.22;;;14.23;;
73170;SDS011;61381;50.118;19.962;2022-11-13T07:28:09;39.30;;;14.85;;
73170;SDS011;61381;50.118;19.962;2022-11-13T07:33:10;47.88;;;15.55;;
73170;SDS011;61381;50.118;19.962;2022-11-13T07:38:11;48.60;;;16.13;;
73170;SDS011;61381;50.118;19.962;2022-11-13T07:43:13;57.42;;;18.95;;
73170;SDS011;61381;50.118;19.962;2022-11-13T07:48:14;58.35;;;18.48;;
73170;SDS011;61381;50.118;19.962;2022-11-13T07:53:15;57.10;;;17.38;;
73170;SDS011;61381;50.118;19.962;2022-11-13T07:58:18;65.10;;;18.10;;
73170;SDS011;61381;50.118;19.962;2022-11-13T08:03:19;56.85;;;18.63;;
73170;SDS011;61381;50.118;19.962;2022-11-13T08:08:20;54.40;;;17.15;;
73170;SDS011;61381;50.118;19.962;2022-11-13T08:13:23;54.83;;;16.90;;
73170;SDS011;61381;50.118;19.962;2022-11-13T08:18:24;50.60;;;16.45;;
73170;SDS011;61381;50.118;19.962;2022-11-13T08:23:26;47.20;;;16.10;;
73170;SDS011;61381;50.118;19.962;2022-11-13T08:28:28;50.60;;;15.13;;
73170;SDS011;61381;50.118;19.962;2022-11-13T08:33:34;52.08;;;19.05;;
73170;SDS011;61381;50.118;19.962;2022-11-13T08:38:35;53.15;;;15.90;;
73170;SDS011;61381;50.118;19.962;2022-11-13T08:43:38;50.70;;;16.63;;
73170;SDS011;61381;50.118;19.962;2022-11-13T08:48:39;52.20;;;16.67;;
73170;SDS011;61381;50.118;19.962;2022-11-13T08:53:40;57.08;;;18.38;;
73170;SDS011;61381;50.118;19.962;2022-11-13T08:58:50;54.65;;;19.70;;
73170;SDS011;61381;50.118;19.962;2022-11-13T09:03:51;57.40;;;19.85;;
73170;SDS011;61381;50.118;19.962;2022-11-13T09:08:52;63.00;;;19.48;;
73170;SDS011;61381;50.118;19.962;2022-11-13T09:13:54;70.85;;;21.75;;
73170;SDS011;61381;50.118;19.962;2022-11-13T09:18:55;64.65;;;19.00;;
73170;SDS011;61381;50.118;19.962;2022-11-13T09:23:56;66.90;;;21.75;;
73170;SDS011;61381;50.118;19.962;2022-11-13T09:28:58;60.83;;;18.95;;
73170;SDS011;61381;50.118;19.962;2022-11-13T09:34:00;57.60;;;16.40;;
73170;SDS011;61381;50.118;19.962;2022-11-13T09:39:01;64.38;;;19.60;;
73170;SDS011;61381;50.118;19.962;2022-11-13T09:44:13;63.83;;;19.98;;
73170;SDS011;61381;50.118;19.962;2022-11-13T09:49:22;60.53;;;18.42;;
73170;SDS011;61381;50.118;19.962;2022-11-13T09:54:26;55.30;;;18.67;;
73170;SDS011;61381;50.118;19.962;2022-11-13T09:59:30;52.55;;;17.77;;
73170;SDS011;61381;50.118;19.962;2022-11-13T10:09:59;51.10;;;16.77;;
73170;SDS011;61381;50.118;19.962;2022-11-13T10:15:15;43.55;;;14.02;;
73170;SDS011;61381;50.118;19.962;2022-11-13T10:20:18;45.70;;;15.20;;
73170;SDS011;61381;50.118;19.962;2022-11-13T10:25:22;38.83;;;13.93;;
73170;SDS011;61381;50.118;19.962;2022-11-13T10:30:27;46.90;;;15.13;;
73170;SDS011;61381;50.118;19.962;2022-11-13T10:35:36;51.95;;;16.48;;
73170;SDS011;61381;50.118;19.962;2022-11-13T10:40:44;51.10;;;18.17;;
73170;SDS011;61381;50.118;19.962;2022-11-13T10:45:53;51.20;;;15.95;;
73170;SDS011;61381;50.118;19.962;2022-11-13T10:50:56;45.28;;;15.10;;
73170;SDS011;61381;50.118;19.962;2022-11-13T10:55:59;47.83;;;16.27;;
73170;SDS011;61381;50.118;19.962;2022-11-13T11:01:01;51.40;;;17.23;;
73170;SDS011;61381;50.118;19.962;2022-11-13T11:06:13;50.80;;;16.90;;
73170;SDS011;61381;50.118;19.962;2022-11-13T11:11:15;42.92;;;15.05;;
73170;SDS011;61381;50.118;19.962;2022-11-13T11:16:20;47.70;;;15.05;;
73170;SDS011;61381;50.118;19.962;2022-11-13T11:21:24;46.47;;;14.85;;
73170;SDS011;61381;50.118;19.962;2022-11-13T11:26:30;36.60;;;13.65;;
73170;SDS011;61381;50.118;19.962;2022-11-13T11:31:50;44.22;;;16.98;;
73170;SDS011;61381;50.118;19.962;2022-11-13T11:36:57;47.38;;;15.75;;
73170;SDS011;61381;50.118;19.962;2022-11-13T11:42:06;39.55;;;15.18;;
73170;SDS011;61381;50.118;19.962;2022-11-13T11:47:21;43.50;;;16.73;;
73170;SDS011;61381;50.118;19.962;2022-11-13T11:52:30;39.88;;;14.50;;
73170;SDS011;61381;50.118;19.962;2022-11-13T11:57:45;36.97;;;14.27;;
73170;SDS011;61381;50.118;19.962;2022-11-13T12:03:03;47.30;;;16.00;;
73170;SDS011;61381;50.118;19.962;2022-11-13T12:08:22;50.67;;;18.30;;
73170;SDS011;61381;50.118;19.962;2022-11-13T12:13:34;41.20;;;14.88;;
73170;SDS011;61381;50.118;19.962;2022-11-13T12:18:43;47.97;;;17.90;;
73170;SDS011;61381;50.118;19.962;2022-11-13T12:23:56;43.65;;;14.05;;
73170;SDS011;61381;50.118;19.962;2022-11-13T12:29:07;52.88;;;18.55;;
73170;SDS011;61381;50.118;19.962;2022-11-13T12:34:24;37.50;;;14.15;;
73170;SDS011;61381;50.118;19.962;2022-11-13T12:39:30;39.80;;;14.77;;
73170;SDS011;61381;50.118;19.962;2022-11-13T12:44:39;40.40;;;14.98;;
73170;SDS011;61381;50.118;19.962;2022-11-13T12:49:58;46.38;;;16.00;;
73170;SDS011;61381;50.118;19.962;2022-11-13T12:55:04;49.03;;;16.63;;
73170;SDS011;61381;50.118;19.962;2022-11-13T13:05:30;54.10;;;20.27;;
73170;SDS011;61381;50.118;19.962;2022-11-13T13:10:51;50.58;;;16.50;;
73170;SDS011;61381;50.118;19.962;2022-11-13T13:16:00;56.45;;;20.17;;
73170;SDS011;61381;50.118;19.962;2022-11-13T13:21:06;56.95;;;19.83;;
73170;SDS011;61381;50.118;19.962;2022-11-13T13:26:13;47.63;;;17.10;;
73170;SDS011;61381;50.118;19.962;2022-11-13T13:31:20;52.63;;;17.33;;
73170;SDS011;61381;50.118;19.962;2022-11-13T13:36:31;51.28;;;16.85;;
73170;SDS011;61381;50.118;19.962;2022-11-13T13:41:41;46.88;;;19.00;;
73170;SDS011;61381;50.118;19.962;2022-11-13T13:46:52;39.95;;;14.75;;
73170;SDS011;61381;50.118;19.962;2022-11-13T13:51:59;137.60;;;87.72;;
73170;SDS011;61381;50.118;19.962;2022-11-13T13:57:00;41.92;;;15.43;;
73170;SDS011;61381;50.118;19.962;2022-11-13T14:02:11;45.55;;;15.75;;
73170;SDS011;61381;50.118;19.962;2022-11-13T14:07:21;47.03;;;16.85;;
73170;SDS011;61381;50.118;19.962;2022-11-13T14:12:23;56.45;;;22.15;;
73170;SDS011;61381;50.118;19.962;2022-11-13T14:17:24;43.47;;;16.48;;
73170;SDS011;61381;50.118;19.962;2022-11-13T14:22:27;42.15;;;15.93;;
73170;SDS011;61381;50.118;19.962;2022-11-13T14:27:28;47.10;;;18.02;;
73170;SDS011;61381;50.118;19.962;2022-11-13T14:32:30;37.67;;;15.52;;
73170;SDS011;61381;50.118;19.962;2022-11-13T14:37:49;48.97;;;16.45;;
73170;SDS011;61381;50.118;19.962;2022-11-13T14:42:53;44.72;;;16.27;;
73170;SDS011;61381;50.118;19.962;2022-11-13T14:48:16;38.92;;;14.18;;
73170;SDS011;61381;50.118;19.962;2022-11-13T14:53:31;47.53;;;17.00;;
73170;SDS011;61381;50.118;19.962;2022-11-13T14:58:36;46.05;;;17.67;;
73170;SDS011;61381;50.118;19.962;2022-11-13T15:03:39;52.42;;;17.05;;
73170;SDS011;61381;50.118;19.962;2022-11-13T15:08:54;49.15;;;14.27;;
73170;SDS011;61381;50.118;19.962;2022-11-13T15:13:56;49.72;;;15.02;;
73170;SDS011;61381;50.118;19.962;2022-11-13T15:18:59;43.58;;;14.95;;
73170;SDS011;61381;50.118;19.962;2022-11-13T15:24:08;47.15;;;16.67;;
73170;SDS011;61381;50.118;19.962;2022-11-13T15:29:10;49.30;;;18.33;;
73170;SDS011;61381;50.118;19.962;2022-11-13T15:34:11;53.20;;;17.27;;
73170;SDS011;61381;50.118;19.962;2022-11-13T15:39:16;58.05;;;18.33;;
73170;SDS011;61381;50.118;19.962;2022-11-13T15:44:17;52.17;;;18.90;;
73170;SDS011;61381;50.118;19.962;2022-11-13T15:49:18;53.67;;;17.63;;
73170;SDS011;61381;50.118;19.962;2022-11-13T15:54:21;59.38;;;17.42;;
73170;SDS011;61381;50.118;19.962;2022-11-13T15:59:25;60.10;;;19.33;;
73170;SDS011;61381;50.118;19.962;2022-11-13T16:04:26;74.68;;;24.70;;
73170;SDS011;61381;50.118;19.962;2022-11-13T16:09:28;79.15;;;24.00;;
73170;SDS011;61381;50.118;19.962;2022-11-13T16:14:29;91.07;;;29.40;;
73170;SDS011;61381;50.118;19.962;2022-11-13T16:19:36;78.63;;;26.02;;
73170;SDS011;61381;50.118;19.962;2022-11-13T16:29:45;62.55;;;23.88;;
73170;SDS011;61381;50.118;19.962;2022-11-13T16:34:46;76.00;;;22.17;;
73170;SDS011;61381;50.118;19.962;2022-11-13T16:39:50;70.85;;;20.13;;
73170;SDS011;61381;50.118;19.962;2022-11-13T16:44:51;56.15;;;16.45;;
73170;SDS011;61381;50.118;19.962;2022-11-13T16:49:59;58.53;;;18.20;;
73170;SDS011;61381;50.118;19.962;2022-11-13T16:55:04;53.92;;;16.65;;
73170;SDS011;61381;50.118;19.962;2022-11-13T17:00:05;52.83;;;16.42;;
73170;SDS011;61381;50.118;19.962;2022-11-13T17:05:09;59.22;;;18.77;;
73170;SDS011;61381;50.118;19.962;2022-11-13T17:10:13;59.92;;;19.67;;
73170;SDS011;61381;50.118;19.962;2022-11-13T17:15:16;56.90;;;18.58;;
73170;SDS011;61381;50.118;19.962;2022-11-13T17:20:18;68.95;;;20.63;;
73170;SDS011;61381;50.118;19.962;2022-11-13T17:25:21;75.07;;;22.52;;
73170;SDS011;61381;50.118;19.962;2022-11-13T17:30:22;69.85;;;22.27;;
73170;SDS011;61381;50.118;19.962;2022-11-13T17:35:25;61.53;;;19.13;;
73170;SDS011;61381;50.118;19.962;2022-11-13T17:40:30;65.57;;;19.60;;
73170;SDS011;61381;50.118;19.962;2022-11-13T17:45:34;57.63;;;19.30;;
73170;SDS011;61381;50.118;19.962;2022-11-13T17:50:37;71.00;;;23.15;;
73170;SDS011;61381;50.118;19.962;2022-11-13T17:55:40;66.97;;;19.65;;
73170;SDS011;61381;50.118;19.962;2022-11-13T18:00:44;59.15;;;18.73;;
73170;SDS011;61381;50.118;19.962;2022-11-13T18:05:45;68.65;;;20.67;;
73170;SDS011;61381;50.118;19.962;2022-11-13T18:10:48;70.85;;;20.55;;
73170;SDS011;61381;50.118;19.962;2022-11-13T18:15:51;67.25;;;19.27;;
73170;SDS011;61381;50.118;19.962;2022-11-13T18:20:53;73.38;;;22.00;;
73170;SDS011;61381;50.118;19.962;2022-11-13T18:25:55;64.72;;;20.52;;
73170;SDS011;61381;50.118;19.962;2022-11-13T18:30:56;91.55;;;24.50;;
73170;SDS011;61381;50.118;19.962;2022-11-13T18:35:57;80.82;;;23.48;;
73170;SDS011;61381;50.118;19.962;2022-11-13T18:41:00;72.60;;;20.38;;
73170;SDS011;61381;50.118;19.962;2022-11-13T18:46:02;72.53;;;20.08;;
73170;SDS011;61381;50.118;19.962;2022-11-13T18:51:06;81.32;;;23.65;;
73170;SDS011;61381;50.118;19.962;2022-11-13T18:56:18;65.75;;;19.95;;
73170;SDS011;61381;50.118;19.962;2022-11-13T19:01:25;78.25;;;22.92;;
73170;SDS011;61381;50.118;19.962;2022-11-13T19:06:28;92.35;;;25.27;;
73170;SDS011;61381;50.118;19.962;2022-11-13T19:11:33;88.40;;;23.58;;
73170;SDS011;61381;50.118;19.962;2022-11-13T19:16:35;101.43;;;26.52;;
73170;SDS011;61381;50.118;19.962;2022-11-13T19:21:37;85.32;;;22.55;;
73170;SDS011;61381;50.118;19.962;2022-11-13T19:31:40;74.78;;;23.00;;
73170;SDS011;61381;50.118;19.962;2022-11-13T19:36:41;55.65;;;17.48;;
73170;SDS011;61381;50.118;19.962;2022-11-13T19:41:44;70.93;;;20.65;;
73170;SDS011;61381;50.118;19.962;2022-11-13T19:46:45;59.97;;;18.65;;
73170;SDS011;61381;50.118;19.962;2022-11-13T19:51:46;64.75;;;19.20;;
73170;SDS011;61381;50.118;19.962;2022-11-13T19:56:48;68.07;;;20.50;;
73170;SDS011;61381;50.118;19.962;2022-11-13T20:01:50;92.20;;;23.48;;
73170;SDS011;61381;50.118;19.962;2022-11-13T20:06:51;70.13;;;17.88;;
73170;SDS011;61381;50.118;19.962;2022-11-13T20:11:53;74.15;;;19.98;;
73170;SDS011;61381;50.118;19.962;2022-11-13T20:16:56;89.30;;;24.48;;
73170;SDS011;61381;50.118;19.962;2022-11-13T20:26:59;108.47;;;25.85;;
73170;SDS011;61381;50.118;19.962;2022-11-13T20:32:04;88.60;;;24.10;;
73170;SDS011;61381;50.118;19.962;2022-11-13T20:37:05;81.28;;;22.67;;
73170;SDS011;61381;50.118;19.962;2022-11-13T20:42:08;88.97;;;21.55;;
73170;SDS011;61381;50.118;19.962;2022-11-13T20:47:13;82.63;;;21.58;;
73170;SDS011;61381;50.118;19.962;2022-11-13T20:52:14;89.28;;;23.27;;
73170;SDS011;61381;50.118;19.962;2022-11-13T20:57:17;61.75;;;18.45;;
73170;SDS011;61381;50.118;19.962;2022-11-13T21:02:18;70.15;;;19.38;;
73170;SDS011;61381;50.118;19.962;2022-11-13T21:07:19;76.28;;;20.30;;
73170;SDS011;61381;50.118;19.962;2022-11-13T21:12:22;88.63;;;23.73;;
73170;SDS011;61381;50.118;19.962;2022-11-13T21:17:23;78.05;;;20.42;;
73170;SDS011;61381;50.118;19.962;2022-11-13T21:22:24;96.88;;;22.58;;
73170;SDS011;61381;50.118;19.962;2022-11-13T21:27:26;82.18;;;23.80;;
73170;SDS011;61381;50.118;19.962;2022-11-13T21:32:27;87.45;;;24.23;;
73170;SDS011;61381;50.118;19.962;2022-11-13T21:42:32;87.80;;;22.38;;
73170;SDS011;61381;50.118;19.962;2022-11-13T21:47:33;95.55;;;23.52;;
73170;SDS011;61381;50.118;19.962;2022-11-13T21:57:36;78.25;;;20.17;;
73170;SDS011;61381;50.118;19.962;2022-11-13T22:02:37;93.18;;;20.73;;
73170;SDS011;61381;50.118;19.962;2022-11-13T22:12:40;102.43;;;23.80;;
73170;SDS011;61381;50.118;19.962;2022-11-13T22:17:41;105.97;;;24.23;;
73170;SDS011;61381;50.118;19.962;2022-11-13T22:22:42;102.13;;;23.33;;
73170;SDS011;61381;50.118;19.962;2022-11-13T22:27:45;114.22;;;23.35;;
73170;SDS011;61381;50.118;19.962;2022-11-13T22:32:46;98.65;;;23.73;;
73170;SDS011;61381;50.118;19.962;2022-11-13T22:37:47;111.45;;;23.25;;
73170;SDS011;61381;50.118;19.962;2022-11-13T22:42:49;100.70;;;23.40;;
73170;SDS011;61381;50.118;19.962;2022-11-13T22:47:54;110.78;;;24.90;;
73170;SDS011;61381;50.118;19.962;2022-11-13T22:52:55;102.47;;;23.77;;
73170;SDS011;61381;50.118;19.962;2022-11-13T22:57:57;108.75;;;25.15;;
73170;SDS011;61381;50.118;19.962;2022-11-13T23:02:58;123.47;;;24.08;;
73170;SDS011;61381;50.118;19.962;2022-11-13T23:07:59;180.70;;;26.33;;
73170;SDS011;61381;50.118;19.962;2022-11-13T23:13:02;143.63;;;24.42;;
73170;SDS011;61381;50.118;19.962;2022-11-13T23:18:03;135.32;;;24.20;;
73170;SDS011;61381;50.118;19.962;2022-11-13T23:23:04;150.05;;;26.77;;
73170;SDS011;61381;50.118;19.962;2022-11-13T23:28:06;202.23;;;29.80;;
73170;SDS011;61381;50.118;19.962;2022-11-13T23:33:07;281.08;;;38.42;;
73170;SDS011;61381;50.118;19.962;2022-11-13T23:38:08;148.23;;;25.10;;
73170;SDS011;61381;50.118;19.962;2022-11-13T23:43:11;246.85;;;34.65;;
73170;SDS011;61381;50.118;19.962;2022-11-13T23:48:12;161.32;;;24.33;;
73170;SDS011;61381;50.118;19.962;2022-11-13T23:53:13;181.00;;;27.23;;
73170;SDS011;61381;50.118;19.962;2022-11-13T23:58:16;171.27;;;27.58;;
